createdAt,value
2022-08-03T00:01:49.160Z,2.85
2022-08-03T00:04:15.698Z,3.15
2022-08-03T00:06:42.294Z,3.00
2022-08-03T00:09:09.566Z,2.47
2022-08-03T00:11:36.646Z,3.15
2022-08-03T00:14:04.436Z,2.92
2022-08-03T00:16:31.003Z,3.45
2022-08-03T00:18:57.807Z,2.65
2022-08-03T00:21:24.376Z,2.92
2022-08-03T00:23:52.856Z,3.20
2022-08-03T00:26:22.715Z,2.60
2022-08-03T00:28:50.143Z,2.78
2022-08-03T00:31:16.713Z,3.20
2022-08-03T00:33:58.199Z,2.90
2022-08-03T00:36:27.448Z,2.78
2022-08-03T00:38:54.030Z,2.83
2022-08-03T00:41:20.546Z,3.10
2022-08-03T00:43:47.671Z,2.42
2022-08-03T00:46:19.037Z,2.85
2022-08-03T00:48:49.449Z,2.45
2022-08-03T00:51:16.402Z,2.55
2022-08-03T00:53:43.323Z,2.38
2022-08-03T00:56:13.482Z,2.67
2022-08-03T00:58:40.126Z,2.70
2022-08-03T01:01:07.144Z,2.63
2022-08-03T01:03:33.855Z,2.60
2022-08-03T01:06:15.311Z,2.63
2022-08-03T01:11:33.485Z,2.65
2022-08-03T01:14:19.401Z,3.05
2022-08-03T01:16:59.981Z,3.25
2022-08-03T01:19:47.128Z,2.70
2022-08-03T01:22:36.635Z,2.70
2022-08-03T01:25:28.876Z,2.83
2022-08-03T01:28:17.429Z,3.20
2022-08-03T01:30:46.076Z,3.03
2022-08-03T01:33:16.924Z,2.58
2022-08-03T01:35:47.593Z,2.60
2022-08-03T01:38:23.755Z,3.05
2022-08-03T01:40:54.605Z,3.58
2022-08-03T01:44:28.544Z,2.92
2022-08-03T01:46:11.638Z,3.30
2022-08-03T01:48:39.867Z,2.85
2022-08-03T01:51:08.151Z,3.38
2022-08-03T01:53:35.114Z,2.63
2022-08-03T01:56:03.235Z,2.60
2022-08-03T01:58:29.885Z,3.17
2022-08-03T02:01:01.119Z,3.20
2022-08-03T02:06:59.181Z,2.60
2022-08-03T02:08:44.943Z,3.13
2022-08-03T02:11:12.325Z,3.35
2022-08-03T02:13:39.545Z,3.72
2022-08-03T02:16:07.226Z,3.35
2022-08-03T02:18:34.457Z,3.00
2022-08-03T02:21:10.823Z,3.47
2022-08-03T02:23:38.425Z,3.30
2022-08-03T02:26:06.186Z,3.40
2022-08-03T02:28:36.422Z,3.63
2022-08-03T02:31:05.241Z,3.38
2022-08-03T02:33:36.035Z,3.72
2022-08-03T02:36:03.368Z,4.10
2022-08-03T02:38:34.279Z,2.85
2022-08-03T02:41:02.930Z,3.60
2022-08-03T02:43:39.222Z,3.35
2022-08-03T02:46:23.267Z,3.50
2022-08-03T02:48:52.167Z,3.00
2022-08-03T02:51:19.325Z,3.40
2022-08-03T02:53:46.546Z,3.67
2022-08-03T02:56:13.795Z,3.75
2022-08-03T02:58:44.205Z,3.45
2022-08-03T03:01:11.833Z,4.43
2022-08-03T03:03:44.764Z,3.42
2022-08-03T03:06:12.824Z,3.78
2022-08-03T03:08:41.826Z,3.95
2022-08-03T03:11:08.917Z,4.03
2022-08-03T03:13:36.086Z,4.65
2022-08-03T03:16:04.737Z,4.05
2022-08-03T03:18:32.441Z,3.67
2022-08-03T03:20:59.540Z,4.07
2022-08-03T03:23:26.867Z,3.83
2022-08-03T03:25:55.900Z,3.15
2022-08-03T03:28:25.517Z,4.43
2022-08-03T03:30:52.846Z,3.63
2022-08-03T03:33:20.828Z,3.97
2022-08-03T03:35:47.493Z,3.80
2022-08-03T03:38:14.270Z,3.80
2022-08-03T03:40:41.394Z,5.00
2022-08-03T03:43:09.888Z,3.70
2022-08-03T03:45:36.586Z,4.20
2022-08-03T03:48:06.890Z,5.53
2022-08-03T03:50:35.355Z,6.15
2022-08-03T03:53:02.603Z,5.80
2022-08-03T03:55:29.268Z,7.35
2022-08-03T03:57:56.153Z,6.38
2022-08-03T04:00:23.585Z,9.38
2022-08-03T04:02:50.172Z,6.68
2022-08-03T04:05:51.931Z,7.45
2022-08-03T04:08:37.268Z,7.40
2022-08-03T04:11:06.723Z,7.35
2022-08-03T04:13:53.850Z,6.85
2022-08-03T04:16:22.516Z,7.57
2022-08-03T04:18:54.247Z,7.50
2022-08-03T04:21:23.506Z,6.63
2022-08-03T04:23:51.907Z,6.88
2022-08-03T04:26:21.156Z,7.53
2022-08-03T04:28:50.288Z,8.05
2022-08-03T04:31:18.321Z,7.00
2022-08-03T04:33:45.320Z,8.05
2022-08-03T04:36:15.237Z,6.78
2022-08-03T04:38:54.581Z,7.40
2022-08-03T04:41:23.019Z,7.00
2022-08-03T04:43:51.672Z,7.07
2022-08-03T04:46:19.071Z,7.20
2022-08-03T04:48:46.176Z,6.57
2022-08-03T04:51:13.305Z,6.22
2022-08-03T04:53:39.896Z,6.05
2022-08-03T04:56:07.287Z,5.55
2022-08-03T04:58:33.990Z,5.85
2022-08-03T05:01:00.530Z,5.85
2022-08-03T05:03:27.071Z,6.05
2022-08-03T05:06:09.790Z,4.88
2022-08-03T05:08:46.270Z,5.40
2022-08-03T05:11:15.422Z,5.10
2022-08-03T05:13:42.081Z,5.03
2022-08-03T05:16:08.637Z,4.72
2022-08-03T05:18:35.941Z,5.30
2022-08-03T05:21:02.575Z,6.03
2022-08-03T05:23:29.396Z,4.65
2022-08-03T05:25:55.956Z,4.45
2022-08-03T05:28:22.784Z,4.28
2022-08-03T05:30:49.448Z,3.97
2022-08-03T05:33:16.204Z,4.90
2022-08-03T05:36:01.258Z,4.10
2022-08-03T05:38:34.994Z,4.53
2022-08-03T05:41:21.732Z,4.40
2022-08-03T05:43:54.109Z,4.90
2022-08-03T05:46:22.092Z,4.70
2022-08-03T05:48:49.225Z,4.72
2022-08-03T05:51:15.854Z,4.78
2022-08-03T05:53:43.177Z,4.43
2022-08-03T05:56:14.730Z,4.55
2022-08-03T05:58:43.877Z,4.47
2022-08-03T06:01:10.617Z,4.35
2022-08-03T06:03:37.204Z,4.90
2022-08-03T06:06:03.890Z,4.50
2022-08-03T06:08:30.392Z,4.72
2022-08-03T06:10:57.069Z,4.32
2022-08-03T06:13:23.639Z,4.00
2022-08-03T06:15:50.493Z,4.47
2022-08-03T06:18:17.072Z,4.25
2022-08-03T06:20:43.649Z,4.40
2022-08-03T06:23:16.154Z,4.38
2022-08-03T06:25:44.622Z,4.00
2022-08-03T06:28:35.280Z,3.60
2022-08-03T06:30:59.657Z,3.90
2022-08-03T06:33:48.467Z,4.22
2022-08-03T06:36:13.174Z,4.20
2022-08-03T06:38:40.271Z,4.35
2022-08-03T06:41:06.860Z,3.88
2022-08-03T06:43:37.419Z,3.92
2022-08-03T06:46:05.635Z,3.88
2022-08-03T06:48:32.672Z,3.67
2022-08-03T06:50:59.415Z,3.97
2022-08-03T06:53:26.119Z,3.60
2022-08-03T06:55:54.849Z,3.50
2022-08-03T06:58:22.562Z,3.65
2022-08-03T07:00:49.393Z,3.85
2022-08-03T07:03:16.301Z,3.60
2022-08-03T07:05:43.462Z,3.47
2022-08-03T07:08:10.097Z,3.42
2022-08-03T07:10:37.072Z,3.70
2022-08-03T07:13:04.112Z,3.38
2022-08-03T07:15:38.285Z,3.58
2022-08-03T07:18:17.829Z,3.30
2022-08-03T07:20:55.650Z,3.35
2022-08-03T07:23:22.368Z,3.22
2022-08-03T07:25:49.075Z,3.10
2022-08-03T07:28:15.742Z,3.42
2022-08-03T07:30:42.348Z,3.22
2022-08-03T07:33:08.936Z,3.17
2022-08-03T07:35:35.503Z,2.95
2022-08-03T07:38:02.170Z,2.88
2022-08-03T07:40:31.541Z,2.85
2022-08-03T07:42:59.324Z,2.72
2022-08-03T07:45:26.720Z,3.17
2022-08-03T07:47:54.208Z,3.03
2022-08-03T07:50:21.722Z,2.72
2022-08-03T07:52:48.580Z,2.63
2022-08-03T07:55:19.814Z,2.58
2022-08-03T07:57:46.551Z,2.55
2022-08-03T08:00:18.316Z,2.33
2022-08-03T08:02:44.971Z,2.60
2022-08-03T08:05:11.574Z,2.25
2022-08-03T08:07:39.491Z,2.20
2022-08-03T08:10:07.655Z,2.53
2022-08-03T08:12:34.162Z,2.60
2022-08-03T08:15:01.268Z,2.55
2022-08-03T08:17:27.835Z,2.33
2022-08-03T08:19:54.399Z,2.47
2022-08-03T08:22:30.224Z,2.58
2022-08-03T08:24:59.088Z,2.80
2022-08-03T08:27:25.904Z,2.55
2022-08-03T08:29:54.341Z,2.33
2022-08-03T08:32:23.385Z,2.75
2022-08-03T08:34:49.997Z,2.10
2022-08-03T08:37:16.604Z,2.38
2022-08-03T08:39:43.161Z,3.05
2022-08-03T08:42:10.224Z,2.53
2022-08-03T08:44:36.965Z,2.15
2022-08-03T08:47:04.542Z,2.30
2022-08-03T08:49:33.011Z,2.50
2022-08-03T08:52:01.369Z,2.13
2022-08-03T08:54:29.683Z,1.77
2022-08-03T08:56:57.361Z,1.98
2022-08-03T08:59:24.917Z,1.70
2022-08-03T09:01:51.477Z,1.88
2022-08-03T09:04:18.182Z,1.80
2022-08-03T09:06:53.856Z,1.80
2022-08-03T09:10:11.672Z,1.80
2022-08-03T09:12:38.800Z,2.13
2022-08-03T09:15:25.631Z,1.63
2022-08-03T09:17:57.090Z,1.58
2022-08-03T09:23:00.295Z,1.80
2022-08-03T09:25:46.128Z,1.80
2022-08-03T09:28:52.789Z,1.52
2022-08-03T09:31:01.647Z,1.83
2022-08-03T09:33:36.127Z,1.45
2022-08-03T09:36:03.014Z,1.38
2022-08-03T09:38:29.566Z,1.40
2022-08-03T09:41:00.287Z,1.50
2022-08-03T09:43:28.100Z,1.52
2022-08-03T09:46:03.933Z,1.55
2022-08-03T09:48:31.187Z,1.67
2022-08-03T09:51:14.347Z,1.60
2022-08-03T09:53:58.782Z,1.70
2022-08-03T09:56:41.769Z,1.67
2022-08-03T09:59:09.311Z,1.45
2022-08-03T10:01:37.238Z,1.60
2022-08-03T10:04:05.322Z,1.42
2022-08-03T10:06:32.509Z,1.35
2022-08-03T10:09:13.722Z,1.38
2022-08-03T10:11:42.250Z,1.25
2022-08-03T10:14:10.724Z,1.33
2022-08-03T10:16:39.816Z,1.23
2022-08-03T10:19:08.039Z,1.45
2022-08-03T10:21:37.519Z,1.38
2022-08-03T10:24:06.224Z,1.30
2022-08-03T10:26:34.917Z,1.50
2022-08-03T10:29:04.379Z,1.30
2022-08-03T10:31:54.478Z,1.80
2022-08-03T10:34:26.946Z,1.30
2022-08-03T10:36:57.085Z,1.50
2022-08-03T10:39:27.961Z,1.20
2022-08-03T10:41:56.677Z,0.95
2022-08-03T10:44:24.791Z,1.33
2022-08-03T10:46:51.773Z,1.17
2022-08-03T10:49:34.465Z,0.98
2022-08-03T10:52:03.735Z,1.00
2022-08-03T10:55:07.346Z,1.15
2022-08-03T10:57:58.335Z,1.23
2022-08-03T11:00:27.194Z,1.23
2022-08-03T11:03:14.564Z,1.30
2022-08-03T11:05:42.900Z,1.30
2022-08-03T11:08:19.762Z,1.38
2022-08-03T11:10:47.013Z,1.20
2022-08-03T11:13:18.162Z,1.45
2022-08-03T11:15:46.694Z,1.42
2022-08-03T11:18:14.485Z,1.35
2022-08-03T11:20:49.221Z,1.40
2022-08-03T11:23:17.815Z,1.15
2022-08-03T11:26:11.866Z,1.30
2022-08-03T11:28:39.846Z,1.45
2022-08-03T11:31:49.305Z,1.10
2022-08-03T11:34:17.480Z,1.35
2022-08-03T11:37:19.099Z,1.35
2022-08-03T11:39:47.636Z,1.50
2022-08-03T11:42:23.284Z,1.00
2022-08-03T11:44:50.582Z,1.35
2022-08-03T11:47:18.266Z,1.40
2022-08-03T11:49:48.862Z,1.38
2022-08-03T11:52:16.759Z,1.10
2022-08-03T11:54:43.809Z,1.38
2022-08-03T11:57:10.369Z,1.13
2022-08-03T11:59:38.793Z,1.17
2022-08-03T12:02:12.938Z,1.35
2022-08-03T12:04:54.660Z,1.67
2022-08-03T12:08:02.522Z,1.38
2022-08-03T12:10:11.941Z,1.30
2022-08-03T12:12:42.242Z,1.27
2022-08-03T12:15:13.003Z,1.10
2022-08-03T12:17:41.262Z,1.30
2022-08-03T12:20:09.980Z,1.48
2022-08-03T12:22:39.014Z,1.40
2022-08-03T12:25:06.684Z,1.73
2022-08-03T12:27:33.273Z,1.20
2022-08-03T12:30:02.078Z,1.13
2022-08-03T12:32:29.715Z,1.85
2022-08-03T12:35:02.023Z,1.20
2022-08-03T12:37:29.129Z,1.15
2022-08-03T12:40:10.113Z,1.45
2022-08-03T12:42:39.213Z,1.40
2022-08-03T12:45:26.822Z,1.42
2022-08-03T12:47:58.497Z,1.30
2022-08-03T12:50:35.917Z,1.30
2022-08-03T12:53:05.662Z,1.45
2022-08-03T12:55:57.209Z,1.38
2022-08-03T12:58:53.154Z,1.30
2022-08-03T13:01:22.397Z,1.10
2022-08-03T13:03:52.934Z,1.48
2022-08-03T13:06:24.303Z,1.00
2022-08-03T13:09:03.430Z,1.45
2022-08-03T13:12:01.722Z,0.85
2022-08-03T13:14:20.061Z,1.27
2022-08-03T13:16:50.279Z,1.30
2022-08-03T13:19:16.965Z,1.13
2022-08-03T13:22:03.072Z,1.23
2022-08-03T13:24:31.965Z,0.90
2022-08-03T13:26:59.522Z,1.20
2022-08-03T13:29:26.173Z,1.02
2022-08-03T13:31:52.837Z,1.10
2022-08-03T13:34:23.222Z,1.15
2022-08-03T13:39:58.149Z,1.02
2022-08-03T13:42:25.535Z,1.20
2022-08-03T13:44:52.170Z,0.90
2022-08-03T13:47:19.544Z,1.10
2022-08-03T13:50:00.072Z,1.90
2022-08-03T13:52:28.115Z,0.70
2022-08-03T13:54:54.943Z,1.23
2022-08-03T13:58:02.973Z,1.52
2022-08-03T14:00:08.641Z,1.05
2022-08-03T14:02:35.335Z,0.82
2022-08-03T14:05:02.192Z,0.88
2022-08-03T14:07:28.753Z,1.15
2022-08-03T14:09:55.280Z,0.85
2022-08-03T14:12:21.859Z,0.80
2022-08-03T14:14:48.424Z,0.93
2022-08-03T14:17:16.486Z,0.80
2022-08-03T14:19:53.151Z,0.88
2022-08-03T14:22:21.094Z,0.70
2022-08-03T14:24:48.010Z,0.88
2022-08-03T14:27:16.509Z,0.70
2022-08-03T14:29:43.231Z,1.33
2022-08-03T14:32:13.329Z,0.90
2022-08-03T14:34:40.561Z,1.00
2022-08-03T14:37:07.105Z,0.93
2022-08-03T14:42:20.415Z,0.70
2022-08-03T14:44:47.617Z,1.23
2022-08-03T14:47:14.466Z,0.95
2022-08-03T14:50:37.035Z,0.90
2022-08-03T14:52:27.819Z,0.90
2022-08-03T14:54:55.293Z,0.88
2022-08-03T14:57:22.311Z,1.10
2022-08-03T14:59:56.634Z,0.70
2022-08-03T15:02:25.004Z,0.90
2022-08-03T15:04:52.306Z,0.70
2022-08-03T15:07:20.344Z,0.60
2022-08-03T15:09:47.229Z,0.75
2022-08-03T15:12:13.819Z,1.00
2022-08-03T15:14:40.476Z,0.73
2022-08-03T15:17:07.511Z,0.93
2022-08-03T15:20:01.176Z,0.95
2022-08-03T15:22:25.412Z,0.85
2022-08-03T15:26:28.200Z,0.73
2022-08-03T15:28:04.155Z,0.93
2022-08-03T15:30:35.029Z,0.70
2022-08-03T15:33:01.864Z,0.80
2022-08-03T15:35:28.901Z,0.90
2022-08-03T15:37:55.484Z,1.50
2022-08-03T15:40:22.010Z,0.80
2022-08-03T15:42:48.507Z,0.93
2022-08-03T15:45:15.087Z,1.27
2022-08-03T15:47:44.439Z,0.90
2022-08-03T15:50:11.960Z,1.10
2022-08-03T15:52:38.608Z,0.98
2022-08-03T15:55:05.696Z,1.00
2022-08-03T15:57:32.219Z,1.10
2022-08-03T15:59:58.863Z,1.00
2022-08-03T16:02:25.485Z,1.40
2022-08-03T16:04:52.275Z,0.80
2022-08-03T16:07:38.875Z,1.13
2022-08-03T16:10:05.877Z,0.90
2022-08-03T16:12:32.430Z,1.00
2022-08-03T16:14:59.329Z,1.00
2022-08-03T16:17:26.109Z,1.17
2022-08-03T16:19:55.263Z,0.93
2022-08-03T16:22:23.063Z,0.73
2022-08-03T16:24:51.152Z,0.75
2022-08-03T16:27:37.028Z,1.00
2022-08-03T16:30:05.817Z,1.35
2022-08-03T16:32:32.398Z,1.20
2022-08-03T16:34:58.932Z,1.42
2022-08-03T16:37:41.176Z,1.10
2022-08-03T16:40:19.053Z,0.95
2022-08-03T16:42:46.930Z,0.93
2022-08-03T16:45:13.763Z,1.10
2022-08-03T16:47:40.410Z,1.10
2022-08-03T16:50:15.497Z,1.00
2022-08-03T16:52:47.344Z,1.15
2022-08-03T16:57:59.749Z,1.08
2022-08-03T17:00:34.173Z,1.15
2022-08-03T17:03:18.755Z,1.13
2022-08-03T17:05:48.210Z,0.93
2022-08-03T17:08:19.008Z,1.02
2022-08-03T17:10:53.768Z,1.15
2022-08-03T17:13:22.572Z,1.17
2022-08-03T17:15:57.616Z,1.00
2022-08-03T17:18:26.396Z,1.10
2022-08-03T17:20:54.867Z,1.30
2022-08-03T17:23:34.948Z,0.93
2022-08-03T17:26:04.789Z,1.00
2022-08-03T17:28:51.423Z,1.35
2022-08-03T17:31:31.082Z,1.50
2022-08-03T17:34:00.326Z,1.25
2022-08-03T17:36:47.649Z,1.23
2022-08-03T17:39:16.534Z,1.40
2022-08-03T17:41:49.163Z,1.33
2022-08-03T17:44:32.004Z,1.42
2022-08-03T17:47:06.964Z,1.10
2022-08-03T17:49:40.095Z,1.40
2022-08-03T17:52:31.033Z,1.30
2022-08-03T17:55:57.653Z,1.27
2022-08-03T17:58:03.449Z,1.02
2022-08-03T18:00:51.669Z,1.50
2022-08-03T18:03:57.999Z,1.55
2022-08-03T18:06:27.894Z,1.30
2022-08-03T18:09:00.191Z,1.25
2022-08-03T18:11:37.260Z,1.30
2022-08-03T18:14:16.538Z,1.15
2022-08-03T18:16:57.794Z,1.25
2022-08-03T18:20:04.781Z,1.20
2022-08-03T18:22:15.308Z,1.70
2022-08-03T18:24:44.516Z,1.30
2022-08-03T18:27:15.668Z,1.30
2022-08-03T18:32:13.675Z,1.20
2022-08-03T18:34:53.516Z,1.10
2022-08-03T18:37:25.344Z,1.10
2022-08-03T18:39:55.414Z,1.38
2022-08-03T18:42:25.926Z,1.40
2022-08-03T18:44:56.425Z,1.15
2022-08-03T18:47:52.507Z,1.55
2022-08-03T18:50:38.985Z,1.48
2022-08-03T18:53:16.577Z,1.20
2022-08-03T18:56:01.344Z,1.75
2022-08-03T18:58:35.433Z,1.45
2022-08-03T19:02:00.592Z,1.23
2022-08-03T19:04:31.784Z,1.50
2022-08-03T19:07:04.642Z,1.27
2022-08-03T19:09:52.768Z,1.83
2022-08-03T19:12:30.817Z,1.85
2022-08-03T19:17:29.894Z,1.65
2022-08-03T19:19:57.774Z,1.45
2022-08-03T19:22:27.142Z,1.33
2022-08-03T19:24:55.252Z,1.40
2022-08-03T19:27:26.966Z,1.48
2022-08-03T19:29:58.945Z,1.65
2022-08-03T19:32:28.848Z,1.63
2022-08-03T19:34:56.644Z,1.60
2022-08-03T19:37:23.505Z,1.30
2022-08-03T19:42:40.443Z,2.78
2022-08-03T19:45:13.874Z,2.30
2022-08-03T19:47:53.201Z,1.63
2022-08-03T19:50:20.478Z,2.15
2022-08-03T19:52:48.684Z,1.40
2022-08-03T19:55:17.316Z,1.58
2022-08-03T19:57:47.232Z,1.90
2022-08-03T20:00:19.293Z,1.50
2022-08-03T20:02:50.874Z,1.55
2022-08-03T20:05:18.381Z,1.98
2022-08-03T20:07:47.615Z,1.90
2022-08-03T20:10:16.530Z,1.63
2022-08-03T20:12:45.313Z,1.60
2022-08-03T20:15:12.354Z,2.20
2022-08-03T20:17:55.607Z,1.58
2022-08-03T20:20:33.209Z,1.30
2022-08-03T20:23:01.180Z,1.67
2022-08-03T20:25:38.578Z,1.60
2022-08-03T20:28:15.239Z,1.90
2022-08-03T20:30:44.162Z,2.10
2022-08-03T20:33:11.089Z,1.88
2022-08-03T20:35:37.694Z,2.28
2022-08-03T20:38:09.275Z,2.10
2022-08-03T20:40:36.240Z,2.25
2022-08-03T20:43:04.856Z,2.10
2022-08-03T20:45:59.099Z,2.30
2022-08-03T20:48:18.545Z,2.20
2022-08-03T20:50:48.835Z,2.10
2022-08-03T20:53:16.435Z,2.47
2022-08-03T20:56:03.166Z,1.92
2022-08-03T20:58:30.920Z,2.13
2022-08-03T21:00:58.397Z,2.90
2022-08-03T21:03:25.138Z,2.35
2022-08-03T21:06:10.287Z,2.30
2022-08-03T21:08:46.917Z,2.15
2022-08-03T21:11:18.916Z,2.38
2022-08-03T21:13:02.596Z,1.88
2022-08-03T21:13:54.422Z,2.20
2022-08-03T21:16:26.921Z,2.60
2022-08-03T21:18:55.555Z,2.33
2022-08-03T21:21:23.297Z,2.38
2022-08-03T21:23:55.724Z,2.00
2022-08-03T21:26:25.113Z,2.30
2022-08-03T21:28:53.786Z,2.42
2022-08-03T21:31:25.777Z,2.30
2022-08-03T21:33:57.468Z,2.35
2022-08-03T21:36:27.323Z,2.05
2022-08-03T21:38:56.666Z,2.17
2022-08-03T21:41:28.699Z,2.38
2022-08-03T21:43:55.859Z,2.67
2022-08-03T21:46:22.883Z,2.28
2022-08-03T21:48:55.288Z,2.15
2022-08-03T21:51:24.846Z,2.20
2022-08-03T21:54:03.305Z,2.20
2022-08-03T21:56:41.336Z,2.50
2022-08-03T21:59:10.113Z,2.42
2022-08-03T22:01:39.838Z,2.30
2022-08-03T22:04:07.395Z,2.05
2022-08-03T22:06:42.310Z,1.80
2022-08-03T22:09:09.257Z,2.40
2022-08-03T22:11:37.821Z,2.60
2022-08-03T22:14:05.456Z,2.10
2022-08-03T22:16:32.136Z,2.30
2022-08-03T22:18:58.782Z,2.08
2022-08-03T22:21:36.041Z,2.47
2022-08-03T22:24:05.338Z,2.70
2022-08-03T22:26:35.479Z,2.28
2022-08-03T22:29:06.823Z,1.87
2022-08-03T22:31:58.188Z,2.08
2022-08-03T22:34:23.712Z,2.35
2022-08-03T22:36:57.854Z,2.40
2022-08-03T22:39:28.682Z,2.42
2022-08-03T22:41:58.067Z,2.60
2022-08-03T22:44:25.650Z,2.42
2022-08-03T22:46:52.509Z,2.33
2022-08-03T22:49:19.541Z,2.45
2022-08-03T22:51:46.350Z,2.45
2022-08-03T22:54:13.256Z,1.95
2022-08-03T22:56:40.092Z,3.00
2022-08-03T22:59:39.862Z,2.67
2022-08-03T23:01:56.701Z,2.17
2022-08-03T23:04:24.602Z,2.22
2022-08-03T23:06:51.649Z,2.35
2022-08-03T23:09:19.809Z,2.20
2022-08-03T23:11:46.932Z,2.40
2022-08-03T23:14:15.410Z,2.40
2022-08-03T23:16:43.732Z,2.35
2022-08-03T23:19:17.215Z,2.70
2022-08-03T23:22:02.627Z,2.70
2022-08-03T23:24:33.880Z,2.40
2022-08-03T23:27:03.181Z,2.10
2022-08-03T23:29:30.482Z,2.40
2022-08-03T23:31:59.234Z,2.25
2022-08-03T23:34:44.662Z,2.30
2022-08-03T23:37:13.231Z,2.58
2022-08-03T23:39:40.271Z,1.83
2022-08-03T23:42:06.966Z,1.98
2022-08-03T23:44:34.801Z,2.05
2022-08-03T23:47:01.507Z,2.30
2022-08-03T23:49:28.105Z,2.53
2022-08-03T23:52:00.293Z,2.30
2022-08-03T23:54:35.695Z,2.00
2022-08-03T23:57:29.874Z,2.30
